ADDS METAR Data INFO
IDs: Format: Raw Decoded Include TAF

Data at: 1350 UTC 17 Dec 2017

KAVQ 171335Z AUTO 22010KT 10SM SCT050 SCT110 11/03 A2985 RMK AO2 T01080033
KAVQ 171315Z AUTO 12008KT 10SM SCT110 11/03 A2983 RMK AO2 T01100033
KAVQ 171255Z AUTO 12012KT 10SM SCT110 11/04 A2982 RMK AO2 T01090039
KAVQ 171235Z AUTO 12012KT 10SM SCT110 11/05 A2982 RMK AO2 T01080045
KAVQ 171215Z AUTO 12015G19KT 10SM BKN110 11/05 A2981 RMK AO2 T01100045
KAVQ 171155Z AUTO 12012KT 10SM SCT085 SCT110 12/04 A2982 RMK AO2 T01150039
KAVQ 171135Z AUTO 11011G14KT 10SM SCT085 12/04 A2981 RMK AO2 T01190041
KAVQ 171115Z AUTO 13011KT 10SM SCT060 SCT070 BKN080 12/05 A2981 RMK AO2 T01160053
KAVQ 171055Z AUTO 11006KT 10SM SCT060 BKN070 BKN095 11/06 A2981 RMK AO2 T01100056
KAVQ 171035Z AUTO 08008KT 10SM SCT060 BKN090 BKN120 11/06 A2981 RMK AO2 T01050055
KAVQ 171015Z AUTO 06006KT 10SM SCT060 BKN090 11/06 A2982 RMK AO2 T01070059
KAVQ 170955Z AUTO 00000KT 10SM SCT055 SCT075 OVC090 11/04 A2981 RMK AO2 P0005 T01110044
KAVQ 170935Z AUTO 00000KT 10SM SCT020 BKN055 OVC070 11/05 A2982 RMK AO2 P0005 T01130048
KAVQ 170915Z AUTO 14011G29KT 2 1/2SM SCT022 BKN065 OVC110 12/00 A2982 RMK AO2 VIS 1 1/4V5 P0005 T01161004
KAVQ 170855Z AUTO 08004KT 10SM SCT090 BKN110 11/M04 A2980 RMK AO2 T01131036
KAVQ 170835Z AUTO 05003KT 10SM SCT090 BKN110 11/M04 A2981 RMK AO2 T01111039
KAVQ 170815Z AUTO 27004KT 10SM OVC110 11/M04 A2981 RMK AO2 T01131040
KAVQ 170755Z AUTO 00000KT 10SM BKN110 11/M04 A2981 RMK AO2 T01091041
KAVQ 170735Z AUTO 25005KT 10SM SCT070 BKN100 12/M04 A2981 RMK AO2 T01241036
KAVQ 170715Z AUTO 13008KT 10SM BKN070 BKN090 11/M05 A2981 RMK AO2 T01111049
KAVQ 170655Z AUTO 12003KT 10SM CLR 11/M05 A2981 RMK AO2 T01141054
KAVQ 170635Z AUTO 08003KT 10SM SCT090 13/M03 A2981 RMK AO2 T01331030
KAVQ 170615Z AUTO 15007KT 10SM SCT070 BKN090 15/M02 A2981 RMK AO2 T01461016
KAVQ 170555Z AUTO 16008KT 10SM CLR 15/M02 A2981 RMK AO2 T01451020
KAVQ 170535Z AUTO 16010KT 10SM CLR 14/M04 A2981 RMK AO2 T01371036
KAVQ 170515Z AUTO 15007KT 10SM CLR 14/M05 A2980 RMK AO2 T01401052
KAVQ 170455Z AUTO 13006KT 10SM CLR 14/M06 A2980 RMK AO2 T01391058
KAVQ 170435Z AUTO 10005KT 10SM CLR 14/M06 A2980 RMK AO2 T01401060
KAVQ 170415Z AUTO 10008KT 10SM CLR 15/M05 A2980 RMK AO2 T01521053
KAVQ 170355Z AUTO 15009KT 10SM CLR 16/M04 A2980 RMK AO2 T01591044
KAVQ 170335Z AUTO 15010KT 10SM CLR 16/M04 A2980 RMK AO2 T01561043
KAVQ 170315Z AUTO 14009KT 10SM CLR 15/M05 A2980 RMK AO2 T01541048
KAVQ 170255Z AUTO 15010KT 10SM CLR 15/M05 A2980 RMK AO2 T01541054
KAVQ 170235Z AUTO 16009KT 10SM CLR 16/M06 A2980 RMK AO2 T01561058
KAVQ 170215Z AUTO 17008KT 10SM CLR 16/M06 A2980 RMK AO2 T01601062
KAVQ 170155Z AUTO 17010KT 10SM CLR 16/M06 A2980 RMK AO2 T01641064
KAVQ 170135Z AUTO 17010KT 10SM CLR 16/M06 A2979 RMK AO2 T01621064
KAVQ 170115Z AUTO 17011KT 10SM CLR 17/M06 A2978 RMK AO2 T01651062
KAVQ 170055Z AUTO 18011KT 10SM CLR 16/M07 A2976 RMK AO2 T01621067
KAVQ 170035Z AUTO 17008KT 10SM CLR 16/M07 A2976 RMK AO2 T01631073
KAVQ 170015Z AUTO 18008KT 10SM CLR 17/M08 A2976 RMK AO2 T01721077
KAVQ 162355Z AUTO 18012G15KT 10SM CLR 18/M08 A2975 RMK AO2 T01801085
KAVQ 162335Z AUTO 19009KT 10SM CLR 18/M09 A2975 RMK AO2 T01841092
KAVQ 162315Z AUTO 19011KT 10SM CLR 19/M10 A2975 RMK AO2 T01861099
KAVQ 162255Z AUTO 20011KT 10SM CLR 19/M10 A2974 RMK AO2 T01871100
KAVQ 162235Z AUTO 19010KT 10SM CLR 19/M10 A2974 RMK AO2 T01921097
KAVQ 162215Z AUTO 19013G17KT 10SM CLR 20/M10 A2973 RMK AO2 T02011100
KAVQ 162155Z AUTO 18014KT 10SM CLR 20/M10 A2973 RMK AO2 T02021100
KAVQ 162135Z AUTO 16012KT 10SM CLR 20/M10 A2974 RMK AO2 T01961097
KAVQ 162115Z AUTO 19016KT 10SM CLR 19/M09 A2974 RMK AO2 T01921092
KAVQ 162055Z AUTO 18016KT 10SM CLR 19/M09 A2975 RMK AO2 T01851089
KAVQ 162035Z AUTO 18016G21KT 10SM CLR 18/M09 A2976 RMK AO2 T01811088
KAVQ 162015Z AUTO 19018G21KT 10SM CLR 18/M09 A2976 RMK AO2 T01811087
KAVQ 161955Z AUTO 18016G20KT 10SM CLR 18/M09 A2977 RMK AO2 T01751095
KAVQ 161935Z AUTO 13008KT 10SM CLR 17/M10 A2979 RMK AO2 T01701103
KAVQ 161915Z AUTO 11007KT 10SM CLR 17/M11 A2980 RMK AO2 T01661107
KAVQ 161855Z AUTO 11007KT 10SM CLR 16/M11 A2980 RMK AO2 T01611111
KAVQ 161835Z AUTO 11009KT 10SM CLR 16/M11 A2981 RMK AO2 T01561115
KAVQ 161815Z AUTO 12011KT 10SM CLR 15/M12 A2981 RMK AO2 T01521120
KAVQ 161755Z AUTO 12011KT 10SM CLR 15/M12 A2982 RMK AO2 T01471125
KAVQ 161735Z AUTO 12013KT 10SM CLR 14/M13 A2982 RMK AO2 T01411127
KAVQ 161715Z AUTO 12014G22KT 10SM CLR 14/M13 A2982 RMK AO2 T01361126
KAVQ 161655Z AUTO 12019G24KT 10SM CLR 13/M12 A2982 RMK AO2 T01261124
KAVQ 161635Z AUTO 12018G23KT 10SM CLR 12/M12 A2982 RMK AO2 T01191123
KAVQ 161615Z AUTO 12017G24KT 10SM CLR 11/M12 A2981 RMK AO2 T01121121
KAVQ 161555Z AUTO 12014G19KT 10SM CLR 10/M12 A2982 RMK AO2 T01001123
KAVQ 161535Z AUTO 11013G20KT 10SM CLR 09/M12 A2983 RMK AO2 T00941121
KAVQ 161515Z AUTO 11017G20KT 10SM CLR 09/M12 A2983 RMK AO2 T00881119
KAVQ 161455Z AUTO 12012G18KT 10SM CLR 08/M11 A2984 RMK AO2 T00831115
KAVQ 161435Z AUTO 14010G15KT 10SM CLR 06/M11 A2984 RMK AO2 T00611115
KAVQ 161415Z AUTO 17005KT 10SM CLR 07/M11 A2985 RMK AO2 T00661115
KAVQ 161355Z AUTO 12011KT 10SM CLR 08/M11 A2985 RMK AO2 T00771111
KAVQ 161335Z AUTO 10009KT 10SM CLR 07/M11 A2985 RMK AO2 T00711107
KAVQ 161315Z AUTO 11011KT 10SM CLR 07/M10 A2985 RMK AO2 T00681103
KAVQ 161255Z AUTO 11009KT 10SM CLR 07/M10 A2985 RMK AO2 T00701100
KAVQ 161235Z AUTO 10010KT 10SM CLR 07/M10 A2986 RMK AO2 T00731101
KAVQ 161215Z AUTO 11011KT 10SM CLR 08/M10 A2987 RMK AO2 T00761103
KAVQ 161155Z AUTO 11009KT 10SM CLR 08/M10 A2988 RMK AO2 T00791102
KAVQ 161135Z AUTO 12009KT 10SM CLR 08/M10 A2989 RMK AO2 T00831105
KAVQ 161115Z AUTO 12011KT 10SM CLR 08/M10 A2989 RMK AO2 T00801103
KAVQ 161055Z AUTO 09009KT 10SM CLR 07/M10 A2990 RMK AO2 T00691101
KAVQ 161035Z AUTO 17005KT 10SM CLR 08/M10 A2992 RMK AO2 T00761100
KAVQ 161015Z AUTO 09010KT 10SM CLR 09/M10 A2992 RMK AO2 T00851100
KAVQ 160955Z AUTO 09011KT 10SM CLR 08/M10 A2993 RMK AO2 T00791101
KAVQ 160935Z AUTO 08008KT 10SM CLR 08/M10 A2993 RMK AO2 T00771098
KAVQ 160915Z AUTO 07006KT 10SM CLR 09/M10 A2995 RMK AO2 T00851097
KAVQ 160855Z AUTO 09006KT 10SM CLR 09/M10 A2995 RMK AO2 T00871097
KAVQ 160835Z AUTO 09005KT 10SM CLR 10/M10 A2996 RMK AO2 T00951096
KAVQ 160815Z AUTO 10010KT 10SM CLR 09/M10 A2996 RMK AO2 T00891097
KAVQ 160755Z AUTO 10007KT 10SM CLR 09/M10 A2997 RMK AO2 T00871101
KAVQ 160735Z AUTO 11008KT 10SM CLR 09/M10 A2998 RMK AO2 T00901102
KAVQ 160715Z AUTO 11009KT 10SM CLR 09/M10 A2999 RMK AO2 T00911104
KAVQ 160655Z AUTO 11011KT 10SM CLR 10/M10 A3001 RMK AO2 T00961102
KAVQ 160635Z AUTO 11009KT 10SM CLR 10/M10 A3001 RMK AO2 T00951102
KAVQ 160615Z AUTO 13007KT 10SM CLR 09/M10 A3002 RMK AO2 T00911101
KAVQ 160555Z AUTO 12007KT 10SM CLR 09/M10 A3002 RMK AO2 T00861096
KAVQ 160535Z AUTO 10005KT 10SM CLR 09/M09 A3003 RMK AO2 T00851095
KAVQ 160515Z AUTO 11006KT 10SM CLR 09/M09 A3003 RMK AO2 T00851090
KAVQ 160455Z AUTO 10004KT 10SM CLR 08/M09 A3004 RMK AO2 T00821089
KAVQ 160435Z AUTO 09004KT 10SM CLR 08/M10 A3004 RMK AO2 T00831096
KAVQ 160415Z AUTO 10006KT 10SM CLR 09/M10 A3003 RMK AO2 T00921099
KAVQ 160355Z AUTO 12005KT 10SM CLR 09/M10 A3004 RMK AO2 T00901102
KAVQ 160335Z AUTO 12005KT 10SM CLR 10/M09 A3004 RMK AO2 T00991093
KAVQ 160315Z AUTO 00000KT 10SM CLR 11/M10 A3004 RMK AO2 T01101096
KAVQ 160255Z AUTO 00000KT 10SM CLR 11/M10 A3004 RMK AO2 T01121097
KAVQ 160235Z AUTO 00000KT 10SM CLR 11/M09 A3004 RMK AO2 T01071092
KAVQ 160215Z AUTO 00000KT 10SM CLR 11/M09 A3004 RMK AO2 T01141089
KAVQ 160155Z AUTO 00000KT 10SM CLR 13/M09 A3004 RMK AO2 T01331086